createdAt,value
2023-03-26T00:01:39.283Z,80.16
2023-03-26T00:04:06.280Z,80.24
2023-03-26T00:06:33.748Z,80.29
2023-03-26T00:09:00.246Z,81.04
2023-03-26T00:11:27.171Z,80.94
2023-03-26T00:13:53.670Z,80.38
2023-03-26T00:16:20.140Z,79.98
2023-03-26T00:18:46.882Z,80.42
2023-03-26T00:21:14.475Z,80.46
2023-03-26T00:23:40.966Z,80.70
2023-03-26T00:26:07.561Z,81.28
2023-03-26T00:28:34.025Z,82.12
2023-03-26T00:31:01.146Z,81.19
2023-03-26T00:33:27.843Z,81.62
2023-03-26T00:35:54.945Z,81.44
2023-03-26T00:38:22.111Z,81.92
2023-03-26T00:40:48.909Z,81.16
2023-03-26T00:43:15.451Z,80.98
2023-03-26T00:45:41.981Z,82.09
2023-03-26T00:48:08.518Z,82.45
2023-03-26T00:50:35.145Z,82.23
2023-03-26T00:53:01.610Z,82.97
2023-03-26T00:55:28.120Z,82.62
2023-03-26T00:57:54.635Z,83.20
2023-03-26T01:00:21.133Z,84.36
2023-03-26T01:02:47.732Z,83.44
2023-03-26T01:05:44.005Z,84.50
2023-03-26T01:08:22.453Z,84.38
2023-03-26T01:10:49.028Z,84.61
2023-03-26T01:13:15.692Z,84.99
2023-03-26T01:15:42.309Z,84.84
2023-03-26T01:18:09.181Z,84.00
2023-03-26T01:20:35.867Z,84.26
2023-03-26T01:23:02.679Z,84.56
2023-03-26T01:25:29.508Z,84.34
2023-03-26T01:27:55.918Z,85.77
2023-03-26T01:30:28.345Z,85.84
2023-03-26T01:33:09.485Z,85.84
2023-03-26T01:35:36.062Z,85.45
2023-03-26T01:38:17.662Z,85.03
2023-03-26T01:40:44.110Z,85.87
2023-03-26T01:43:16.666Z,85.14
2023-03-26T01:45:43.869Z,86.00
2023-03-26T01:48:10.345Z,85.57
2023-03-26T01:50:36.875Z,85.09
2023-03-26T01:53:03.513Z,85.46
2023-03-26T01:55:50.214Z,85.79
2023-03-26T01:58:26.214Z,85.18
2023-03-26T02:00:55.327Z,84.84
2023-03-26T02:03:30.300Z,85.37
2023-03-26T02:06:16.682Z,85.63
2023-03-26T02:08:47.504Z,85.55
2023-03-26T02:11:14.320Z,84.68
2023-03-26T02:13:41.217Z,85.39
2023-03-26T02:16:08.500Z,86.10
2023-03-26T02:18:35.005Z,85.62
2023-03-26T02:21:02.409Z,85.14
2023-03-26T02:23:28.970Z,86.38
2023-03-26T02:25:55.759Z,85.87
2023-03-26T02:28:22.514Z,87.02
2023-03-26T02:30:49.088Z,86.32
2023-03-26T02:33:15.805Z,86.52
2023-03-26T02:35:42.250Z,86.15
2023-03-26T02:38:08.780Z,86.75
2023-03-26T02:40:35.171Z,86.00
2023-03-26T02:43:01.580Z,86.50
2023-03-26T02:45:27.985Z,85.98
2023-03-26T02:47:54.758Z,85.39
2023-03-26T02:50:21.313Z,85.40
2023-03-26T02:52:47.741Z,86.48
2023-03-26T02:55:14.164Z,85.98
2023-03-26T02:57:40.723Z,85.31
2023-03-26T03:00:07.472Z,86.28
2023-03-26T03:02:34.629Z,86.13
2023-03-26T03:05:01.321Z,86.34
2023-03-26T03:07:27.863Z,86.77
2023-03-26T03:09:54.395Z,86.12
2023-03-26T03:12:20.874Z,86.37
2023-03-26T03:14:47.239Z,85.96
2023-03-26T03:17:13.746Z,87.04
2023-03-26T03:19:40.191Z,86.64
2023-03-26T03:22:06.671Z,87.16
2023-03-26T03:24:33.124Z,87.39
2023-03-26T03:27:00.107Z,87.44
2023-03-26T03:29:26.672Z,88.29
2023-03-26T03:31:53.193Z,88.97
2023-03-26T03:34:19.667Z,88.93
2023-03-26T03:36:46.467Z,88.02
2023-03-26T03:39:12.884Z,88.97
2023-03-26T03:41:39.352Z,88.48
2023-03-26T03:44:05.816Z,88.29
2023-03-26T03:46:32.292Z,88.88
2023-03-26T03:48:58.690Z,88.23
2023-03-26T03:51:25.167Z,88.58
2023-03-26T03:53:51.579Z,90.31
2023-03-26T03:56:18.028Z,90.18
2023-03-26T03:58:44.548Z,89.87
2023-03-26T04:01:10.983Z,89.85
2023-03-26T04:03:37.523Z,89.99
2023-03-26T04:06:04.457Z,90.56
2023-03-26T04:08:30.875Z,90.30
2023-03-26T04:10:57.311Z,89.57
2023-03-26T04:13:23.718Z,90.75
2023-03-26T04:15:50.136Z,90.25
2023-03-26T04:18:16.633Z,90.56
2023-03-26T04:20:43.717Z,89.94
2023-03-26T04:23:10.203Z,90.58
2023-03-26T04:25:36.673Z,89.99
2023-03-26T04:28:03.564Z,90.45
2023-03-26T04:30:30.003Z,91.15
2023-03-26T04:32:56.481Z,91.15
2023-03-26T04:35:22.998Z,92.26
2023-03-26T04:37:49.467Z,92.46
2023-03-26T04:40:19.727Z,92.21
2023-03-26T04:42:46.388Z,91.44
2023-03-26T04:45:16.044Z,91.22
2023-03-26T04:47:42.691Z,92.12
2023-03-26T04:50:09.653Z,91.54
2023-03-26T04:52:36.199Z,91.83
2023-03-26T04:55:03.181Z,92.38
2023-03-26T04:57:31.191Z,92.83
2023-03-26T04:59:57.665Z,92.25
2023-03-26T05:02:24.402Z,93.66
2023-03-26T05:04:50.877Z,93.10
2023-03-26T05:07:18.037Z,93.52
2023-03-26T05:09:44.542Z,92.87
2023-03-26T05:12:11.006Z,93.79
2023-03-26T05:14:37.586Z,93.64
2023-03-26T05:17:04.049Z,93.12
2023-03-26T05:19:30.581Z,93.10
2023-03-26T05:21:57.116Z,92.59
2023-03-26T05:24:23.597Z,92.27
2023-03-26T05:26:50.582Z,92.21
2023-03-26T05:29:17.120Z,91.74
2023-03-26T05:31:43.632Z,92.09
2023-03-26T05:34:10.337Z,92.44
2023-03-26T05:36:36.841Z,92.21
2023-03-26T05:39:03.982Z,91.38
2023-03-26T05:41:30.443Z,91.43
2023-03-26T05:43:56.984Z,91.75
2023-03-26T05:46:23.503Z,91.30
2023-03-26T05:48:50.442Z,90.90
2023-03-26T05:51:16.892Z,90.49
2023-03-26T05:53:43.375Z,90.16
2023-03-26T05:56:09.963Z,89.92
2023-03-26T05:58:36.568Z,89.80
2023-03-26T06:01:06.912Z,88.72
2023-03-26T06:03:33.595Z,89.14
2023-03-26T06:06:00.181Z,88.28
2023-03-26T06:08:26.867Z,89.02
2023-03-26T06:10:59.895Z,88.73
2023-03-26T06:13:26.376Z,88.98
2023-03-26T06:15:52.823Z,88.43
2023-03-26T06:18:19.502Z,87.94
2023-03-26T06:20:46.990Z,87.87
2023-03-26T06:23:13.450Z,88.35
2023-03-26T06:25:39.964Z,87.84
2023-03-26T06:28:06.801Z,87.64
2023-03-26T06:30:33.182Z,86.91
2023-03-26T06:32:59.930Z,87.23
2023-03-26T06:35:26.413Z,86.72
2023-03-26T06:37:52.822Z,87.80
2023-03-26T06:40:19.268Z,87.00
2023-03-26T06:43:08.832Z,86.52
2023-03-26T06:45:32.541Z,86.97
2023-03-26T06:47:59.054Z,87.04
2023-03-26T06:50:25.931Z,86.66
2023-03-26T06:52:55.624Z,87.13
2023-03-26T06:55:22.360Z,86.88
2023-03-26T06:57:52.081Z,86.31
2023-03-26T07:00:18.717Z,86.65
2023-03-26T07:02:45.319Z,86.37
2023-03-26T07:05:11.981Z,85.95
2023-03-26T07:07:46.102Z,86.44
2023-03-26T07:10:13.288Z,85.71
2023-03-26T07:12:39.711Z,85.80
2023-03-26T07:15:06.548Z,85.50
2023-03-26T07:17:33.073Z,85.36
2023-03-26T07:19:59.460Z,85.63
2023-03-26T07:22:25.965Z,85.83
2023-03-26T07:24:52.585Z,85.70
2023-03-26T07:27:35.087Z,85.67
2023-03-26T07:30:01.733Z,85.09
2023-03-26T07:32:28.259Z,85.21
2023-03-26T07:35:03.796Z,86.08
2023-03-26T07:37:49.253Z,85.40
2023-03-26T07:40:25.051Z,84.85
2023-03-26T07:42:51.436Z,85.34
2023-03-26T07:45:36.203Z,85.21
2023-03-26T07:48:03.027Z,84.78
2023-03-26T07:50:29.610Z,85.05
2023-03-26T07:52:56.774Z,84.13
2023-03-26T07:55:23.295Z,84.13
2023-03-26T07:57:49.630Z,83.26
2023-03-26T08:00:23.341Z,84.14
2023-03-26T08:02:50.037Z,83.52
2023-03-26T08:05:19.434Z,84.15
2023-03-26T08:08:09.983Z,83.62
2023-03-26T08:10:56.878Z,83.96
2023-03-26T08:13:49.911Z,84.30
2023-03-26T08:16:21.635Z,83.79
2023-03-26T08:18:48.044Z,84.23
2023-03-26T08:21:17.341Z,83.81
2023-03-26T08:24:05.183Z,83.65
2023-03-26T08:26:44.677Z,84.31
2023-03-26T08:29:24.082Z,82.91
2023-03-26T08:31:50.693Z,83.05
2023-03-26T08:34:17.134Z,83.29
2023-03-26T08:36:43.649Z,83.30
2023-03-26T08:39:10.164Z,82.96
2023-03-26T08:41:48.865Z,82.64
2023-03-26T08:44:15.343Z,81.99
2023-03-26T08:46:54.150Z,83.28
2023-03-26T08:49:29.874Z,82.48
2023-03-26T08:52:15.128Z,82.42
2023-03-26T08:54:47.182Z,82.61
2023-03-26T08:57:32.399Z,83.55
2023-03-26T09:00:03.829Z,84.56
2023-03-26T09:02:44.624Z,84.99
2023-03-26T09:05:30.145Z,85.79
2023-03-26T09:08:15.419Z,83.18
2023-03-26T09:10:42.605Z,85.76
2023-03-26T09:13:27.680Z,85.63
2023-03-26T09:16:12.698Z,86.99
2023-03-26T09:18:39.167Z,87.29
2023-03-26T09:21:14.512Z,87.38
2023-03-26T09:23:41.079Z,87.12
2023-03-26T09:26:26.231Z,88.64
2023-03-26T09:29:01.814Z,86.11
2023-03-26T09:31:28.356Z,86.89
2023-03-26T09:33:54.830Z,86.88
2023-03-26T09:36:24.019Z,88.27
2023-03-26T09:38:52.072Z,87.16
2023-03-26T09:41:18.496Z,88.00
2023-03-26T09:43:54.635Z,89.02
2023-03-26T09:46:39.665Z,88.49
2023-03-26T09:49:15.622Z,87.84
2023-03-26T09:51:48.258Z,87.87
2023-03-26T09:54:35.536Z,87.41
2023-03-26T09:57:21.049Z,87.70
2023-03-26T09:59:47.560Z,87.73
2023-03-26T10:02:45.370Z,88.09
2023-03-26T10:05:12.207Z,89.23
2023-03-26T10:07:38.566Z,89.80
2023-03-26T10:10:12.012Z,89.44
2023-03-26T10:12:46.095Z,89.95
2023-03-26T10:15:27.531Z,88.65
2023-03-26T10:18:03.125Z,88.85
2023-03-26T10:20:53.072Z,89.77
2023-03-26T10:23:23.682Z,90.64
2023-03-26T10:26:08.638Z,91.58
2023-03-26T10:28:44.036Z,90.20
2023-03-26T10:31:10.654Z,91.62
2023-03-26T10:33:37.076Z,91.47
2023-03-26T10:36:06.390Z,93.12
2023-03-26T10:38:46.845Z,92.91
2023-03-26T10:41:32.146Z,91.20
2023-03-26T10:44:09.256Z,89.33
2023-03-26T10:46:54.220Z,90.13
2023-03-26T10:49:26.855Z,89.21
2023-03-26T10:51:57.267Z,90.01
2023-03-26T10:54:23.753Z,90.89
2023-03-26T10:56:50.285Z,90.39
2023-03-26T10:59:16.913Z,89.65
2023-03-26T11:02:02.161Z,91.11
2023-03-26T11:04:31.700Z,91.70
2023-03-26T11:07:19.751Z,91.28
2023-03-26T11:09:46.326Z,91.73
2023-03-26T11:12:26.494Z,92.86
2023-03-26T11:15:00.819Z,91.95
2023-03-26T11:17:40.008Z,91.67
2023-03-26T11:20:09.898Z,91.04
2023-03-26T11:22:47.041Z,91.15
2023-03-26T11:25:32.164Z,93.10
2023-03-26T11:28:09.638Z,91.64
2023-03-26T11:30:42.334Z,91.89
2023-03-26T11:33:11.294Z,91.97
2023-03-26T11:35:41.773Z,91.27
2023-03-26T11:38:27.370Z,91.02
2023-03-26T11:40:54.808Z,90.62
2023-03-26T11:43:25.899Z,91.42
2023-03-26T11:45:52.440Z,91.50
2023-03-26T11:48:39.071Z,92.09
2023-03-26T11:51:09.378Z,92.64
2023-03-26T11:53:35.820Z,91.56
2023-03-26T11:56:21.133Z,91.52
2023-03-26T11:58:49.874Z,91.78
2023-03-26T12:01:16.845Z,92.82
2023-03-26T12:03:43.501Z,93.13
2023-03-26T12:06:23.314Z,90.84
2023-03-26T12:08:50.849Z,90.47
2023-03-26T12:11:24.073Z,89.76
2023-03-26T12:13:59.858Z,89.64
2023-03-26T12:16:26.510Z,90.81
2023-03-26T12:19:00.396Z,90.93
2023-03-26T12:21:26.895Z,91.06
2023-03-26T12:24:00.339Z,90.68
2023-03-26T12:26:40.120Z,88.64
2023-03-26T12:29:08.159Z,90.94
2023-03-26T12:32:00.960Z,88.47
2023-03-26T12:34:31.252Z,87.50
2023-03-26T12:36:57.800Z,86.22
2023-03-26T12:40:10.666Z,86.73
2023-03-26T12:44:45.166Z,89.05
2023-03-26T12:45:15.378Z,87.50
2023-03-26T12:48:01.103Z,85.82
2023-03-26T12:50:34.487Z,85.80
2023-03-26T12:53:25.635Z,86.03
2023-03-26T12:56:06.032Z,86.24
2023-03-26T12:58:51.567Z,84.67
2023-03-26T13:01:36.880Z,87.48
2023-03-26T13:04:07.712Z,88.12
2023-03-26T13:07:02.371Z,87.89
2023-03-26T13:09:32.030Z,87.56
2023-03-26T13:11:58.474Z,88.04
2023-03-26T13:14:34.025Z,88.34
2023-03-26T13:17:09.672Z,88.20
2023-03-26T13:19:48.049Z,89.30
2023-03-26T13:22:17.458Z,90.09
2023-03-26T13:24:44.139Z,90.94
2023-03-26T13:27:20.525Z,90.46
2023-03-26T13:29:50.164Z,90.72
2023-03-26T13:32:22.776Z,89.60
2023-03-26T13:34:59.043Z,89.82
2023-03-26T13:37:27.381Z,88.88
2023-03-26T13:40:11.604Z,88.92
2023-03-26T13:42:56.974Z,88.31
2023-03-26T13:45:26.508Z,88.35
2023-03-26T13:47:54.300Z,86.90
2023-03-26T13:50:27.706Z,86.20
2023-03-26T13:52:59.428Z,86.33
2023-03-26T13:55:29.131Z,87.03
2023-03-26T13:57:58.348Z,85.52
2023-03-26T14:00:31.362Z,84.23
2023-03-26T14:02:59.332Z,84.57
2023-03-26T14:05:35.567Z,85.00
2023-03-26T14:08:22.260Z,85.28
2023-03-26T14:11:03.480Z,83.96
2023-03-26T14:13:44.955Z,84.65
2023-03-26T14:16:12.984Z,84.42
2023-03-26T14:18:50.809Z,85.41
2023-03-26T14:21:20.473Z,85.42
2023-03-26T14:23:49.704Z,85.96
2023-03-26T14:26:31.309Z,84.77
2023-03-26T14:29:09.698Z,85.35
2023-03-26T14:31:36.432Z,84.21
2023-03-26T14:34:03.031Z,84.27
2023-03-26T14:36:38.267Z,83.19
2023-03-26T14:39:26.780Z,81.71
2023-03-26T14:41:56.597Z,81.30
2023-03-26T14:44:22.971Z,80.85
2023-03-26T14:47:04.926Z,81.20
2023-03-26T14:49:53.572Z,80.63
2023-03-26T14:52:39.012Z,80.01
2023-03-26T14:55:07.693Z,80.75
2023-03-26T14:57:52.945Z,81.54
2023-03-26T15:00:25.203Z,78.64
2023-03-26T15:03:07.175Z,78.20
2023-03-26T15:05:45.710Z,79.71
2023-03-26T15:08:21.400Z,77.05
2023-03-26T15:10:59.755Z,78.57
2023-03-26T15:13:32.220Z,78.03
2023-03-26T15:16:01.583Z,78.68
2023-03-26T15:18:27.997Z,76.33
2023-03-26T15:21:10.033Z,78.51
2023-03-26T15:23:42.384Z,77.19
2023-03-26T15:26:35.967Z,77.04
2023-03-26T15:29:12.669Z,77.16
2023-03-26T15:32:03.105Z,75.10
2023-03-26T15:34:29.618Z,77.74
2023-03-26T15:36:56.048Z,76.29
2023-03-26T15:39:31.744Z,76.91
2023-03-26T15:41:58.752Z,76.31
2023-03-26T15:44:25.654Z,75.86
2023-03-26T15:46:52.168Z,76.17
2023-03-26T15:49:24.545Z,75.98
2023-03-26T15:51:53.729Z,77.56
2023-03-26T15:54:42.954Z,75.98
2023-03-26T15:57:12.295Z,76.26
2023-03-26T15:59:38.941Z,76.00
2023-03-26T16:02:24.336Z,74.51
2023-03-26T16:04:54.896Z,74.82
2023-03-26T16:07:24.332Z,75.31
2023-03-26T16:10:02.986Z,75.15
2023-03-26T16:12:30.853Z,75.72
2023-03-26T16:15:06.372Z,74.82
2023-03-26T16:17:51.480Z,75.51
2023-03-26T16:20:33.852Z,75.78
2023-03-26T16:23:00.381Z,76.03
2023-03-26T16:25:34.012Z,75.70
2023-03-26T16:28:06.485Z,74.67
2023-03-26T16:30:33.015Z,74.70
2023-03-26T16:33:22.717Z,74.70
2023-03-26T16:35:53.160Z,74.93
2023-03-26T16:38:20.864Z,75.14
2023-03-26T16:40:59.745Z,75.21
2023-03-26T16:43:32.767Z,74.58
2023-03-26T16:46:16.867Z,75.14
2023-03-26T16:48:51.268Z,74.65
2023-03-26T16:51:36.682Z,75.74
2023-03-26T16:54:09.733Z,76.05
2023-03-26T16:56:41.580Z,76.97
2023-03-26T16:59:09.311Z,78.28
2023-03-26T17:01:44.786Z,78.12
2023-03-26T17:04:20.441Z,78.38
2023-03-26T17:07:06.162Z,77.78
2023-03-26T17:09:32.620Z,77.94
2023-03-26T17:12:15.642Z,77.25
2023-03-26T17:14:44.996Z,77.53
2023-03-26T17:17:32.033Z,78.18
2023-03-26T17:20:03.331Z,78.95
2023-03-26T17:22:33.884Z,80.17
2023-03-26T17:25:07.009Z,79.39
2023-03-26T17:27:38.594Z,78.58
2023-03-26T17:30:24.245Z,79.96
2023-03-26T17:33:20.228Z,79.75
2023-03-26T17:35:47.349Z,81.19
2023-03-26T17:38:37.756Z,82.25
2023-03-26T17:41:04.615Z,83.31
2023-03-26T17:43:34.261Z,84.85
2023-03-26T17:46:03.913Z,84.81
2023-03-26T17:48:32.536Z,85.90
2023-03-26T17:51:00.234Z,86.54
2023-03-26T17:53:30.323Z,87.05
2023-03-26T17:56:15.808Z,88.81
2023-03-26T17:58:47.597Z,89.18
2023-03-26T18:01:26.555Z,89.16
2023-03-26T18:03:56.835Z,90.11
2023-03-26T18:06:32.534Z,90.33
2023-03-26T18:09:11.371Z,91.23
2023-03-26T18:11:37.852Z,91.03
2023-03-26T18:14:04.267Z,90.83
2023-03-26T18:16:30.698Z,91.02
2023-03-26T18:18:57.698Z,93.50
2023-03-26T18:21:25.953Z,94.49
2023-03-26T18:23:52.578Z,94.28
2023-03-26T18:26:34.121Z,95.77
2023-03-26T18:29:20.967Z,95.92
2023-03-26T18:31:55.227Z,98.24
2023-03-26T18:34:22.005Z,98.15
2023-03-26T18:36:57.545Z,99.98
2023-03-26T18:39:24.006Z,99.93
2023-03-26T18:41:50.465Z,99.62
2023-03-26T18:44:17.410Z,98.90
2023-03-26T18:46:44.058Z,98.99
2023-03-26T18:49:11.534Z,98.41
2023-03-26T18:51:46.341Z,97.94
2023-03-26T18:54:18.392Z,98.28
2023-03-26T18:56:46.667Z,98.70
2023-03-26T18:59:20.803Z,98.24
2023-03-26T19:01:48.390Z,98.62
2023-03-26T19:04:14.823Z,99.50
2023-03-26T19:06:41.478Z,100.00
2023-03-26T19:09:19.572Z,100.00
2023-03-26T19:11:50.917Z,100.00
2023-03-26T19:14:18.087Z,100.00
2023-03-26T19:16:49.377Z,100.00
2023-03-26T19:19:18.341Z,100.00
2023-03-26T19:21:44.866Z,100.00
2023-03-26T19:24:11.629Z,100.00
2023-03-26T19:26:38.096Z,100.00
2023-03-26T19:29:04.544Z,100.00
2023-03-26T19:31:34.849Z,100.00
2023-03-26T19:34:02.116Z,100.00
2023-03-26T19:36:30.025Z,98.71
2023-03-26T19:38:59.473Z,98.47
2023-03-26T19:41:26.436Z,97.61
2023-03-26T19:43:53.241Z,97.92
2023-03-26T19:46:22.641Z,97.54
2023-03-26T19:48:50.383Z,96.66
2023-03-26T19:51:23.833Z,96.56
2023-03-26T19:53:52.287Z,95.30
2023-03-26T19:56:18.763Z,94.60
2023-03-26T19:58:45.239Z,94.13
2023-03-26T20:01:15.981Z,95.18
2023-03-26T20:03:42.937Z,95.78
2023-03-26T20:06:14.264Z,95.05
2023-03-26T20:08:40.823Z,95.44
2023-03-26T20:11:12.938Z,96.42
2023-03-26T20:13:39.445Z,96.07
2023-03-26T20:16:11.703Z,96.98
2023-03-26T20:18:38.183Z,95.54
2023-03-26T20:21:09.338Z,95.91
2023-03-26T20:23:39.362Z,94.99
2023-03-26T20:26:05.853Z,94.87
2023-03-26T20:28:38.729Z,95.56
2023-03-26T20:31:14.463Z,95.96
2023-03-26T20:33:40.951Z,96.89
2023-03-26T20:39:17.428Z,96.69
2023-03-26T20:41:45.039Z,95.72
2023-03-26T20:44:12.044Z,96.29
2023-03-26T20:46:38.489Z,96.38
2023-03-26T20:49:05.040Z,97.55
2023-03-26T20:51:31.399Z,96.94
2023-03-26T20:53:57.906Z,97.23
2023-03-26T20:56:24.312Z,97.52
2023-03-26T20:58:57.299Z,96.27
2023-03-26T21:01:30.625Z,97.54
2023-03-26T21:03:57.051Z,97.36
2023-03-26T21:06:23.536Z,97.27
2023-03-26T21:08:50.209Z,97.45
2023-03-26T21:11:26.321Z,98.09
2023-03-26T21:13:58.280Z,98.07
2023-03-26T21:16:24.881Z,98.42
2023-03-26T21:18:51.497Z,97.58
2023-03-26T21:21:50.195Z,98.19
2023-03-26T21:24:34.769Z,97.34
2023-03-26T21:27:04.041Z,96.70
2023-03-26T21:29:30.621Z,97.96
2023-03-26T21:31:57.151Z,98.27
2023-03-26T21:34:23.858Z,98.13
2023-03-26T21:36:50.536Z,98.05
2023-03-26T21:39:17.020Z,97.49
2023-03-26T21:41:45.306Z,97.40
2023-03-26T21:44:11.770Z,95.94
2023-03-26T21:46:40.462Z,95.61
2023-03-26T21:49:06.962Z,95.49
2023-03-26T21:51:33.587Z,95.54
2023-03-26T21:54:00.250Z,95.20
2023-03-26T21:56:35.608Z,94.79
2023-03-26T21:59:02.076Z,95.14
2023-03-26T22:01:33.698Z,93.96
2023-03-26T22:04:03.231Z,94.27
2023-03-26T22:06:35.184Z,94.25
2023-03-26T22:09:01.658Z,95.10
2023-03-26T22:11:28.062Z,94.86
2023-03-26T22:13:54.546Z,95.48
2023-03-26T22:16:21.054Z,95.18
2023-03-26T22:18:47.448Z,95.39
2023-03-26T22:21:13.860Z,96.39
2023-03-26T22:23:40.244Z,96.04
2023-03-26T22:26:06.790Z,96.72
2023-03-26T22:28:33.264Z,97.32
2023-03-26T22:31:04.678Z,96.54
2023-03-26T22:33:31.097Z,97.28
2023-03-26T22:35:57.500Z,96.22
2023-03-26T22:38:24.015Z,96.72
2023-03-26T22:40:57.245Z,97.08
2023-03-26T22:43:23.945Z,97.66
2023-03-26T22:45:50.765Z,96.70
2023-03-26T22:48:17.262Z,96.39
2023-03-26T22:50:43.676Z,97.01
2023-03-26T22:53:10.134Z,96.78
2023-03-26T22:55:36.612Z,96.84
2023-03-26T22:58:03.062Z,96.45
2023-03-26T23:00:29.484Z,96.63
2023-03-26T23:02:56.104Z,95.55
2023-03-26T23:05:22.679Z,95.30
2023-03-26T23:07:49.071Z,95.50
2023-03-26T23:10:15.504Z,96.29
2023-03-26T23:12:41.921Z,96.16
2023-03-26T23:15:08.678Z,95.27
2023-03-26T23:17:35.414Z,96.18
2023-03-26T23:20:02.340Z,95.67
2023-03-26T23:22:28.854Z,96.19
2023-03-26T23:24:55.869Z,96.00
2023-03-26T23:27:22.575Z,96.30
2023-03-26T23:29:49.203Z,95.39
2023-03-26T23:32:24.603Z,96.81
2023-03-26T23:34:52.194Z,96.27
2023-03-26T23:37:19.158Z,95.77
2023-03-26T23:39:45.617Z,96.17
2023-03-26T23:42:12.116Z,95.24
2023-03-26T23:44:38.556Z,96.50
2023-03-26T23:47:04.991Z,96.42
2023-03-26T23:49:31.429Z,96.72
2023-03-26T23:51:57.821Z,95.86
2023-03-26T23:54:24.251Z,95.75
2023-03-26T23:56:50.774Z,96.83
2023-03-26T23:59:17.257Z,96.33
